createdAt,value
2022-09-30T00:01:28.115Z,85.90
2022-09-30T00:03:56.917Z,86.20
2022-09-30T00:06:26.157Z,86.10
2022-09-30T00:08:54.009Z,86.30
2022-09-30T00:11:26.561Z,86.30
2022-09-30T00:13:55.722Z,86.40
2022-09-30T00:16:23.876Z,87.00
2022-09-30T00:18:51.564Z,87.00
2022-09-30T00:21:19.403Z,86.70
2022-09-30T00:23:46.694Z,86.80
2022-09-30T00:26:16.392Z,86.70
2022-09-30T00:28:44.268Z,86.60
2022-09-30T00:31:17.051Z,86.70
2022-09-30T00:33:44.578Z,87.00
2022-09-30T00:36:12.899Z,87.70
2022-09-30T00:38:39.976Z,87.50
2022-09-30T00:41:07.016Z,87.20
2022-09-30T00:43:53.617Z,87.00
2022-09-30T00:46:47.166Z,86.80
2022-09-30T00:49:20.891Z,87.00
2022-09-30T00:51:54.366Z,87.20
2022-09-30T00:54:29.956Z,87.60
2022-09-30T00:57:03.478Z,87.80
2022-09-30T00:59:38.684Z,87.70
2022-09-30T01:02:06.723Z,87.50
2022-09-30T01:04:36.719Z,87.60
2022-09-30T01:07:06.550Z,87.40
2022-09-30T01:09:35.945Z,87.60
2022-09-30T01:12:10.522Z,87.40
2022-09-30T01:14:38.484Z,87.20
2022-09-30T01:17:41.231Z,86.60
2022-09-30T01:20:31.267Z,86.60
2022-09-30T01:23:13.555Z,86.80
2022-09-30T01:25:43.480Z,87.00
2022-09-30T01:28:31.415Z,86.90
2022-09-30T01:31:27.155Z,87.00
2022-09-30T01:34:03.223Z,87.20
2022-09-30T01:36:54.373Z,87.30
2022-09-30T01:39:51.141Z,87.50
2022-09-30T01:42:28.417Z,87.60
2022-09-30T01:45:17.509Z,87.50
2022-09-30T01:47:49.630Z,87.50
2022-09-30T01:50:28.195Z,87.50
2022-09-30T01:53:08.391Z,87.60
2022-09-30T01:55:47.351Z,87.60
2022-09-30T01:58:29.555Z,87.90
2022-09-30T02:00:59.718Z,87.80
2022-09-30T02:03:46.635Z,88.10
2022-09-30T02:06:20.658Z,88.10
2022-09-30T02:08:53.701Z,87.90
2022-09-30T02:11:27.258Z,87.90
2022-09-30T02:14:00.638Z,88.00
2022-09-30T02:17:11.055Z,88.10
2022-09-30T02:19:45.829Z,87.60
2022-09-30T02:22:25.011Z,87.10
2022-09-30T02:24:58.177Z,86.90
2022-09-30T02:27:32.549Z,86.60
2022-09-30T02:30:03.327Z,86.40
2022-09-30T02:32:52.725Z,86.30
2022-09-30T02:35:27.629Z,86.50
2022-09-30T02:37:59.985Z,86.50
2022-09-30T02:40:50.446Z,86.50
2022-09-30T02:43:20.759Z,86.70
2022-09-30T02:45:51.804Z,86.80
2022-09-30T02:48:35.744Z,87.00
2022-09-30T02:51:16.935Z,87.20
2022-09-30T02:53:51.567Z,87.10
2022-09-30T02:57:08.270Z,87.00
2022-09-30T02:59:35.502Z,87.40
2022-09-30T03:02:03.102Z,87.10
2022-09-30T03:04:34.352Z,87.40
2022-09-30T03:07:01.745Z,87.40
2022-09-30T03:09:29.094Z,87.40
2022-09-30T03:12:30.507Z,87.40
2022-09-30T03:15:07.782Z,87.40
2022-09-30T03:17:56.350Z,87.30
2022-09-30T03:20:29.162Z,87.20
2022-09-30T03:23:20.942Z,87.00
2022-09-30T03:26:14.881Z,87.10
2022-09-30T03:29:25.479Z,87.10
2022-09-30T03:32:24.758Z,87.10
2022-09-30T03:35:42.844Z,87.00
2022-09-30T03:38:15.139Z,86.90
2022-09-30T03:41:14.446Z,87.20
2022-09-30T03:43:49.954Z,87.40
2022-09-30T03:46:43.819Z,87.80
2022-09-30T03:49:25.166Z,88.10
2022-09-30T03:51:53.772Z,88.40
2022-09-30T03:54:22.443Z,88.60
2022-09-30T03:56:49.635Z,88.70
2022-09-30T03:59:30.348Z,88.60
2022-09-30T04:01:57.731Z,88.70
2022-09-30T04:04:24.885Z,88.80
2022-09-30T04:06:52.057Z,88.60
2022-09-30T04:09:19.165Z,88.40
2022-09-30T04:11:46.287Z,88.20
2022-09-30T04:14:13.545Z,88.30
2022-09-30T04:16:40.675Z,88.30
2022-09-30T04:19:07.829Z,88.40
2022-09-30T04:21:35.327Z,88.60
2022-09-30T04:24:02.630Z,88.80
2022-09-30T04:26:29.797Z,88.90
2022-09-30T04:28:58.952Z,89.30
2022-09-30T04:31:26.517Z,89.50
2022-09-30T04:33:54.018Z,89.70
2022-09-30T04:36:21.847Z,89.90
2022-09-30T04:38:49.135Z,89.90
2022-09-30T04:41:18.359Z,89.90
2022-09-30T04:43:47.185Z,89.80
2022-09-30T04:46:17.708Z,89.80
2022-09-30T04:48:46.033Z,89.80
2022-09-30T04:51:14.478Z,89.50
2022-09-30T04:53:42.480Z,89.50
2022-09-30T04:56:10.643Z,89.70
2022-09-30T04:58:38.976Z,89.70
2022-09-30T05:01:08.779Z,90.10
2022-09-30T05:03:36.739Z,90.10
2022-09-30T05:06:05.451Z,90.10
2022-09-30T05:08:34.559Z,90.00
2022-09-30T05:11:05.191Z,89.90
2022-09-30T05:13:35.331Z,89.80
2022-09-30T05:16:03.536Z,89.70
2022-09-30T05:18:31.135Z,89.60
2022-09-30T05:20:58.639Z,89.60
2022-09-30T05:23:27.801Z,89.40
2022-09-30T05:25:55.035Z,89.00
2022-09-30T05:28:22.478Z,89.00
2022-09-30T05:30:54.728Z,88.90
2022-09-30T05:33:22.346Z,87.40
2022-09-30T05:35:49.771Z,86.40
2022-09-30T05:38:16.936Z,85.40
2022-09-30T05:40:43.987Z,86.00
2022-09-30T05:43:11.179Z,86.60
2022-09-30T05:45:39.306Z,87.40
2022-09-30T05:48:07.091Z,87.70
2022-09-30T05:50:34.318Z,88.30
2022-09-30T05:53:01.605Z,88.30
2022-09-30T05:55:28.773Z,87.70
2022-09-30T05:57:55.934Z,86.60
2022-09-30T06:00:23.070Z,85.90
2022-09-30T06:02:53.454Z,85.20
2022-09-30T06:05:22.238Z,85.40
2022-09-30T06:07:50.660Z,85.20
2022-09-30T06:10:17.918Z,85.40
2022-09-30T06:12:45.137Z,85.60
2022-09-30T06:15:12.238Z,85.60
2022-09-30T06:17:39.506Z,83.70
2022-09-30T06:20:07.210Z,82.80
2022-09-30T06:22:36.069Z,82.70
2022-09-30T06:25:07.100Z,82.70
2022-09-30T06:27:34.602Z,82.20
2022-09-30T06:30:01.793Z,80.80
2022-09-30T06:32:30.250Z,79.10
2022-09-30T06:34:57.399Z,78.70
2022-09-30T06:37:26.009Z,78.40
2022-09-30T06:39:53.036Z,78.20
2022-09-30T06:42:20.388Z,77.20
2022-09-30T06:44:52.851Z,76.60
2022-09-30T06:47:25.102Z,76.30
2022-09-30T06:49:58.574Z,76.00
2022-09-30T06:52:27.303Z,75.40
2022-09-30T06:54:56.710Z,75.20
2022-09-30T06:57:26.901Z,74.80
2022-09-30T06:59:54.693Z,74.10
2022-09-30T07:02:22.353Z,73.50
2022-09-30T07:04:50.270Z,72.20
2022-09-30T07:07:17.395Z,71.70
2022-09-30T07:09:44.589Z,71.20
2022-09-30T07:12:11.713Z,71.70
2022-09-30T07:14:38.914Z,71.80
2022-09-30T07:17:09.156Z,72.50
2022-09-30T07:19:36.355Z,72.60
2022-09-30T07:22:21.893Z,73.20
2022-09-30T07:24:49.383Z,72.90
2022-09-30T07:27:16.515Z,73.30
2022-09-30T07:30:07.741Z,73.60
2022-09-30T07:32:32.016Z,73.20
2022-09-30T07:34:59.155Z,74.10
2022-09-30T07:37:26.784Z,73.90
2022-09-30T07:39:53.964Z,73.20
2022-09-30T07:42:24.132Z,73.00
2022-09-30T07:44:52.745Z,73.00
2022-09-30T07:47:20.632Z,72.60
2022-09-30T07:49:48.307Z,71.90
2022-09-30T07:52:15.498Z,71.50
2022-09-30T07:54:46.748Z,70.80
2022-09-30T07:57:18.735Z,68.80
2022-09-30T07:59:45.804Z,68.40
2022-09-30T08:02:18.737Z,68.70
2022-09-30T08:04:46.362Z,68.70
2022-09-30T08:07:15.642Z,67.80
2022-09-30T08:09:43.504Z,66.40
2022-09-30T08:12:10.823Z,64.70
2022-09-30T08:14:38.192Z,64.40
2022-09-30T08:17:05.444Z,64.70
2022-09-30T08:19:34.104Z,64.20
2022-09-30T08:24:33.744Z,63.50
2022-09-30T08:27:00.887Z,63.00
2022-09-30T08:29:54.278Z,63.00
2022-09-30T08:32:15.375Z,62.30
2022-09-30T08:34:42.517Z,61.30
2022-09-30T08:37:10.523Z,60.70
2022-09-30T08:39:40.919Z,60.70
2022-09-30T08:42:38.661Z,60.40
2022-09-30T08:45:16.398Z,60.80
2022-09-30T08:47:58.240Z,60.10
2022-09-30T08:50:31.359Z,60.20
2022-09-30T08:53:03.930Z,60.30
2022-09-30T08:55:52.955Z,60.20
2022-09-30T08:58:28.691Z,60.60
2022-09-30T09:01:01.652Z,60.30
2022-09-30T09:03:31.296Z,60.50
2022-09-30T09:06:16.841Z,60.60
2022-09-30T09:09:00.091Z,61.90
2022-09-30T09:11:42.729Z,61.60
2022-09-30T09:14:33.713Z,62.80
2022-09-30T09:17:16.350Z,63.10
2022-09-30T09:19:55.037Z,62.10
2022-09-30T09:22:24.879Z,62.50
2022-09-30T09:24:53.689Z,62.90
2022-09-30T09:27:25.054Z,63.90
2022-09-30T09:30:08.805Z,62.80
2022-09-30T09:32:36.698Z,62.70
2022-09-30T09:35:17.830Z,63.20
2022-09-30T09:38:19.312Z,64.20
2022-09-30T09:41:17.296Z,64.50
2022-09-30T09:44:21.833Z,63.80
2022-09-30T09:47:07.921Z,64.20
2022-09-30T09:49:41.005Z,63.60
2022-09-30T09:52:12.613Z,64.20
2022-09-30T09:54:45.181Z,65.00
2022-09-30T09:57:15.483Z,66.30
2022-09-30T10:00:24.826Z,66.70
2022-09-30T10:03:08.578Z,67.20
2022-09-30T10:05:42.561Z,66.80
2022-09-30T10:08:11.100Z,67.20
2022-09-30T10:10:50.902Z,67.30
2022-09-30T10:13:19.517Z,67.80
2022-09-30T10:15:49.217Z,67.40
2022-09-30T10:18:29.422Z,68.30
2022-09-30T10:21:21.445Z,67.60
2022-09-30T10:23:49.295Z,67.60
2022-09-30T10:26:19.641Z,67.60
2022-09-30T10:28:55.971Z,67.10
2022-09-30T10:31:27.804Z,67.00
2022-09-30T10:34:12.775Z,66.80
2022-09-30T10:36:43.486Z,66.90
2022-09-30T10:39:25.381Z,66.30
2022-09-30T10:42:04.796Z,66.00
2022-09-30T10:44:32.212Z,66.80
2022-09-30T10:47:02.700Z,67.00
2022-09-30T10:50:11.671Z,67.90
2022-09-30T10:52:47.557Z,68.30
2022-09-30T10:55:20.866Z,68.10
2022-09-30T10:57:55.486Z,67.30
2022-09-30T11:00:25.363Z,68.00
2022-09-30T11:03:02.118Z,68.10
2022-09-30T11:05:32.300Z,66.40
2022-09-30T11:08:05.551Z,65.10
2022-09-30T11:11:14.282Z,64.10
2022-09-30T11:13:54.795Z,63.70
2022-09-30T11:16:47.060Z,65.50
2022-09-30T11:19:30.505Z,65.80
2022-09-30T11:22:19.303Z,66.70
2022-09-30T11:24:50.626Z,68.10
2022-09-30T11:27:27.691Z,69.80
2022-09-30T11:30:36.112Z,70.60
2022-09-30T11:33:40.566Z,71.20
2022-09-30T11:36:27.521Z,71.30
2022-09-30T11:39:01.003Z,72.50
2022-09-30T11:41:45.137Z,72.90
2022-09-30T11:44:31.361Z,74.50
2022-09-30T11:47:41.022Z,75.00
2022-09-30T11:50:23.129Z,75.30
2022-09-30T11:53:23.013Z,75.70
2022-09-30T11:55:57.666Z,75.90
2022-09-30T11:58:47.323Z,75.90
2022-09-30T12:01:22.087Z,75.80
2022-09-30T12:04:12.455Z,75.90
2022-09-30T12:07:04.569Z,76.40
2022-09-30T12:09:39.232Z,76.80
2022-09-30T12:12:16.690Z,78.00
2022-09-30T12:15:00.284Z,79.50
2022-09-30T12:17:37.709Z,82.10
2022-09-30T12:20:36.616Z,83.50
2022-09-30T12:23:34.165Z,85.30
2022-09-30T12:26:03.928Z,86.10
2022-09-30T12:29:03.753Z,86.80
2022-09-30T12:31:59.042Z,87.30
2022-09-30T12:34:44.500Z,86.60
2022-09-30T12:37:46.950Z,87.70
2022-09-30T12:40:52.778Z,90.50
2022-09-30T12:44:00.811Z,91.40
2022-09-30T12:46:46.055Z,93.00
2022-09-30T12:49:19.981Z,95.80
2022-09-30T12:51:53.568Z,97.90
2022-09-30T12:54:35.873Z,99.00
2022-09-30T12:57:08.064Z,98.80
2022-09-30T12:59:40.138Z,99.10
2022-09-30T13:02:09.089Z,99.90
2022-09-30T13:04:43.918Z,99.90
2022-09-30T13:07:19.376Z,99.90
2022-09-30T13:10:00.489Z,99.90
2022-09-30T13:12:49.434Z,99.90
2022-09-30T13:15:41.357Z,99.90
2022-09-30T13:18:21.047Z,99.90
2022-09-30T13:20:55.267Z,99.90
2022-09-30T13:23:52.902Z,99.90
2022-09-30T13:26:29.552Z,99.90
2022-09-30T13:29:01.796Z,99.90
2022-09-30T13:31:32.561Z,99.90
2022-09-30T13:34:02.892Z,99.90
2022-09-30T13:36:52.169Z,99.90
2022-09-30T13:39:20.951Z,99.90
2022-09-30T13:42:13.661Z,99.90
2022-09-30T13:45:17.589Z,99.50
2022-09-30T13:48:07.448Z,97.50
2022-09-30T13:50:43.037Z,95.60
2022-09-30T13:53:40.594Z,94.50
2022-09-30T13:56:13.087Z,93.10
2022-09-30T13:59:40.029Z,92.70
2022-09-30T14:02:27.308Z,89.00
2022-09-30T14:05:26.132Z,88.30
2022-09-30T14:08:39.093Z,86.90
2022-09-30T14:11:21.743Z,86.50
2022-09-30T14:13:58.937Z,85.20
2022-09-30T14:16:35.193Z,84.80
2022-09-30T14:19:18.491Z,85.20
2022-09-30T14:21:50.121Z,85.90
2022-09-30T14:24:24.142Z,86.70
2022-09-30T14:27:09.162Z,87.20
2022-09-30T14:30:06.410Z,87.10
2022-09-30T14:32:50.511Z,86.50
2022-09-30T14:35:32.229Z,86.20
2022-09-30T14:38:15.475Z,86.20
2022-09-30T14:40:54.037Z,86.90
2022-09-30T14:43:36.686Z,87.90
2022-09-30T14:46:17.545Z,88.40
2022-09-30T14:48:49.294Z,89.50
2022-09-30T14:51:23.371Z,89.50
2022-09-30T14:53:57.563Z,90.20
2022-09-30T14:56:30.935Z,89.20
2022-09-30T14:58:59.888Z,89.70
2022-09-30T15:01:35.594Z,89.90
2022-09-30T15:04:13.928Z,89.80
2022-09-30T15:06:49.458Z,90.20
2022-09-30T15:09:29.822Z,90.70
2022-09-30T15:12:00.402Z,90.90
2022-09-30T15:14:29.631Z,91.90
2022-09-30T15:17:01.310Z,91.80
2022-09-30T15:19:42.288Z,92.60
2022-09-30T15:22:12.503Z,92.50
2022-09-30T15:24:42.206Z,92.70
2022-09-30T15:27:24.018Z,92.50
2022-09-30T15:30:03.632Z,92.30
2022-09-30T15:32:36.797Z,92.50
2022-09-30T15:35:12.512Z,93.10
2022-09-30T15:37:39.838Z,93.40
2022-09-30T15:40:35.457Z,93.20
2022-09-30T15:43:08.617Z,93.50
2022-09-30T15:45:43.407Z,93.10
2022-09-30T15:48:13.705Z,93.30
2022-09-30T15:50:50.020Z,93.70
2022-09-30T15:53:24.954Z,92.70
2022-09-30T15:55:58.461Z,92.70
2022-09-30T15:58:38.857Z,93.00
2022-09-30T16:01:12.134Z,93.60
2022-09-30T16:03:39.870Z,93.50
2022-09-30T16:06:14.465Z,93.30
2022-09-30T16:08:54.198Z,93.90
2022-09-30T16:11:27.863Z,93.90
2022-09-30T16:13:57.319Z,94.00
2022-09-30T16:16:32.372Z,94.40
2022-09-30T16:19:02.256Z,94.60
2022-09-30T16:21:40.566Z,94.30
2022-09-30T16:24:27.408Z,94.20
2022-09-30T16:26:56.596Z,94.80
2022-09-30T16:29:27.740Z,95.20
2022-09-30T16:31:58.040Z,94.90
2022-09-30T16:34:26.910Z,95.40
2022-09-30T16:36:56.263Z,95.30
2022-09-30T16:39:23.389Z,95.10
2022-09-30T16:41:54.156Z,95.00
2022-09-30T16:44:24.636Z,95.50
2022-09-30T16:46:51.906Z,95.90
2022-09-30T16:49:20.192Z,95.80
2022-09-30T16:51:47.748Z,96.20
2022-09-30T16:54:15.073Z,96.00
2022-09-30T16:56:42.539Z,95.90
2022-09-30T16:59:17.776Z,95.80
2022-09-30T17:01:45.260Z,95.60
2022-09-30T17:04:15.284Z,95.50
2022-09-30T17:06:44.622Z,95.40
2022-09-30T17:09:11.726Z,95.10
2022-09-30T17:11:39.147Z,95.30
2022-09-30T17:14:06.573Z,95.30
2022-09-30T17:16:34.513Z,94.80
2022-09-30T17:19:02.284Z,95.10
2022-09-30T17:21:29.442Z,94.90
2022-09-30T17:23:56.832Z,94.30
2022-09-30T17:26:24.170Z,95.00
2022-09-30T17:28:53.544Z,95.60
2022-09-30T17:31:24.526Z,95.50
2022-09-30T17:33:52.701Z,95.80
2022-09-30T17:36:19.932Z,96.10
2022-09-30T17:38:47.096Z,96.20
2022-09-30T17:41:33.927Z,96.20
2022-09-30T17:44:02.699Z,95.70
2022-09-30T17:46:41.358Z,95.60
2022-09-30T17:49:09.255Z,95.80
2022-09-30T17:51:38.804Z,95.80
2022-09-30T17:54:07.103Z,95.70
2022-09-30T17:56:35.178Z,95.90
2022-09-30T17:59:03.070Z,95.80
2022-09-30T18:01:35.282Z,96.60
2022-09-30T18:04:02.951Z,96.70
2022-09-30T18:06:31.542Z,96.60
2022-09-30T18:09:08.035Z,96.70
2022-09-30T18:11:43.128Z,96.60
2022-09-30T18:14:12.076Z,96.70
2022-09-30T18:16:40.989Z,96.00
2022-09-30T18:21:39.563Z,96.50
2022-09-30T18:24:08.416Z,96.10
2022-09-30T18:26:36.211Z,95.40
2022-09-30T18:29:04.358Z,95.30
2022-09-30T18:31:37.363Z,95.20
2022-09-30T18:34:21.416Z,94.90
2022-09-30T18:36:50.733Z,94.70
2022-09-30T18:39:17.983Z,94.40
2022-09-30T18:41:48.691Z,94.60
2022-09-30T18:44:16.182Z,94.50
2022-09-30T18:46:43.588Z,94.60
2022-09-30T18:49:11.198Z,94.70
2022-09-30T18:51:38.905Z,95.10
2022-09-30T18:54:08.825Z,95.20
2022-09-30T18:56:36.134Z,95.10
2022-09-30T18:59:05.184Z,95.20
2022-09-30T19:01:36.931Z,95.20
2022-09-30T19:04:05.195Z,95.20
2022-09-30T19:06:32.685Z,95.30
2022-09-30T19:09:00.046Z,95.30
2022-09-30T19:11:30.589Z,95.80
2022-09-30T19:13:59.536Z,96.30
2022-09-30T19:16:27.304Z,96.20
2022-09-30T19:18:55.972Z,96.60
2022-09-30T19:21:23.274Z,96.70
2022-09-30T19:23:50.923Z,97.20
2022-09-30T19:26:23.641Z,97.10
2022-09-30T19:28:51.038Z,97.10
2022-09-30T19:31:27.837Z,96.90
2022-09-30T19:34:04.022Z,97.40
2022-09-30T19:36:39.748Z,97.40
2022-09-30T19:39:16.253Z,97.90
2022-09-30T19:41:44.802Z,98.60
2022-09-30T19:44:12.601Z,98.90
2022-09-30T19:46:51.460Z,99.20
2022-09-30T19:49:24.343Z,99.20
2022-09-30T19:51:53.264Z,98.70
2022-09-30T19:54:36.393Z,98.80
2022-09-30T19:57:38.232Z,99.00
2022-09-30T20:00:09.124Z,99.20
2022-09-30T20:02:53.995Z,99.40
2022-09-30T20:05:31.782Z,99.90
2022-09-30T20:08:02.087Z,99.90
2022-09-30T20:10:29.840Z,99.60
2022-09-30T20:13:09.909Z,99.80
2022-09-30T20:15:53.520Z,99.80
2022-09-30T20:18:42.042Z,99.40
2022-09-30T20:21:16.291Z,99.30
2022-09-30T20:23:47.904Z,99.30
2022-09-30T20:26:17.687Z,99.40
2022-09-30T20:28:46.572Z,99.80
2022-09-30T20:31:15.921Z,99.80
2022-09-30T20:33:44.253Z,99.70
2022-09-30T20:36:12.321Z,99.10
2022-09-30T20:38:40.740Z,99.00
2022-09-30T20:41:11.434Z,99.10
2022-09-30T20:43:38.776Z,99.20
2022-09-30T20:46:07.184Z,99.30
2022-09-30T20:48:37.941Z,99.50
2022-09-30T20:51:13.491Z,99.50
2022-09-30T20:53:42.723Z,99.60
2022-09-30T20:56:15.391Z,99.50
2022-09-30T20:58:46.641Z,99.40
2022-09-30T21:01:25.360Z,99.40
2022-09-30T21:03:54.039Z,99.70
2022-09-30T21:06:25.918Z,99.80
2022-09-30T21:08:55.145Z,99.80
2022-09-30T21:11:23.911Z,99.70
2022-09-30T21:13:53.707Z,99.90
2022-09-30T21:16:25.121Z,99.90
2022-09-30T21:18:52.956Z,99.70
2022-09-30T21:21:22.170Z,99.50
2022-09-30T21:23:52.471Z,99.40
2022-09-30T21:26:19.845Z,99.20
2022-09-30T21:28:49.483Z,99.30
2022-09-30T21:31:20.631Z,98.70
2022-09-30T21:33:55.323Z,98.60
2022-09-30T21:36:23.060Z,98.30
2022-09-30T21:38:53.296Z,97.90
2022-09-30T21:41:20.858Z,98.30
2022-09-30T21:43:48.351Z,98.30
2022-09-30T21:46:16.726Z,98.40
2022-09-30T21:48:45.575Z,98.60
2022-09-30T21:51:14.079Z,98.70
2022-09-30T21:53:41.814Z,98.90
2022-09-30T21:56:11.755Z,99.00
2022-09-30T21:58:39.378Z,99.20
2022-09-30T22:01:07.264Z,99.30
2022-09-30T22:03:38.010Z,99.70
2022-09-30T22:06:10.415Z,99.50
2022-09-30T22:08:42.374Z,99.50
2022-09-30T22:11:11.733Z,99.20
2022-09-30T22:13:42.260Z,99.10
2022-09-30T22:16:09.825Z,99.20
2022-09-30T22:18:37.405Z,98.70
2022-09-30T22:21:15.155Z,98.50
2022-09-30T22:23:43.258Z,98.10
2022-09-30T22:26:14.173Z,98.10
2022-09-30T22:28:42.979Z,98.00
2022-09-30T22:31:19.890Z,98.50
2022-09-30T22:34:06.608Z,98.20
2022-09-30T22:36:52.741Z,98.40
2022-09-30T22:39:21.196Z,98.70
2022-09-30T22:41:49.343Z,98.70
2022-09-30T22:44:19.406Z,98.90
2022-09-30T22:46:47.758Z,99.20
2022-09-30T22:49:14.888Z,99.10
2022-09-30T22:51:42.305Z,99.10
2022-09-30T22:54:09.510Z,98.80
2022-09-30T22:56:36.663Z,98.90
2022-09-30T22:59:04.067Z,99.40
2022-09-30T23:01:32.196Z,99.70
2022-09-30T23:04:00.434Z,99.90
2022-09-30T23:06:27.717Z,99.90
2022-09-30T23:08:56.136Z,99.90
2022-09-30T23:11:23.385Z,99.90
2022-09-30T23:13:54.426Z,99.90
2022-09-30T23:16:24.360Z,99.90
2022-09-30T23:18:51.635Z,99.90
2022-09-30T23:21:19.344Z,99.90
2022-09-30T23:23:50.689Z,99.90
2022-09-30T23:26:26.661Z,99.90
2022-09-30T23:28:58.416Z,99.90
2022-09-30T23:31:26.168Z,99.90
2022-09-30T23:33:55.699Z,99.90
2022-09-30T23:36:29.737Z,99.90
2022-09-30T23:39:02.124Z,99.90
2022-09-30T23:41:30.381Z,99.90
2022-09-30T23:43:58.544Z,99.90
2022-09-30T23:46:25.772Z,99.90
2022-09-30T23:48:53.149Z,99.90
2022-09-30T23:51:20.281Z,99.90
2022-09-30T23:53:47.762Z,99.90
2022-09-30T23:56:17.680Z,99.90
2022-09-30T23:58:45.861Z,99.90
